createdAt,value
2019-01-30T00:00:48.311Z,96837.37
2019-01-30T00:03:15.034Z,96828.28
2019-01-30T00:05:43.153Z,96820.73
2019-01-30T00:08:09.991Z,96817.36
2019-01-30T00:10:39.300Z,96815.27
2019-01-30T00:13:06.134Z,96806.44
2019-01-30T00:15:32.903Z,96793.17
2019-01-30T00:17:59.661Z,96794.97
2019-01-30T00:20:26.539Z,96786.91
2019-01-30T00:22:53.510Z,96790.54
2019-01-30T00:25:20.623Z,96781.18
2019-01-30T00:27:47.348Z,96778.06
2019-01-30T00:30:14.825Z,96772.60
2019-01-30T00:32:41.865Z,96767.66
2019-01-30T00:35:08.660Z,96774.14
2019-01-30T00:37:35.420Z,96771.28
2019-01-30T00:40:02.290Z,96765.28
2019-01-30T00:42:29.033Z,96755.68
2019-01-30T00:44:55.873Z,96759.06
2019-01-30T00:47:22.595Z,96753.59
2019-01-30T00:49:49.688Z,96744.77
2019-01-30T00:52:16.418Z,96742.15
2019-01-30T00:54:46.041Z,96745.55
2019-01-30T00:57:16.351Z,96739.03
2019-01-30T00:59:43.228Z,96744.23
2019-01-30T01:02:10.172Z,96722.64
2019-01-30T01:04:37.081Z,96729.43
2019-01-30T01:07:03.801Z,96730.45
2019-01-30T01:09:30.717Z,96728.37
2019-01-30T01:11:57.487Z,96730.72
2019-01-30T01:14:24.218Z,96723.44
2019-01-30T01:16:52.344Z,96714.58
2019-01-30T01:19:19.440Z,96714.30
2019-01-30T01:21:46.301Z,96700.02
2019-01-30T01:24:13.047Z,96693.49
2019-01-30T01:26:39.791Z,96694.53
2019-01-30T01:29:06.824Z,96677.63
2019-01-30T01:31:33.520Z,96674.23
2019-01-30T01:34:00.245Z,96667.23
2019-01-30T01:36:26.997Z,96662.80
2019-01-30T01:38:53.746Z,96650.86
2019-01-30T01:41:20.513Z,96641.48
2019-01-30T01:43:47.221Z,96632.67
2019-01-30T01:46:14.515Z,96631.34
2019-01-30T01:48:41.353Z,96625.63
2019-01-30T01:51:10.815Z,96617.59
2019-01-30T01:53:37.550Z,96612.62
2019-01-30T01:56:04.339Z,96610.30
2019-01-30T01:58:31.040Z,96606.38
2019-01-30T02:00:57.803Z,96602.22
2019-01-30T02:03:24.965Z,96598.34
2019-01-30T02:05:51.731Z,96595.47
2019-01-30T02:08:18.554Z,96598.83
2019-01-30T02:10:45.378Z,96593.89
2019-01-30T02:13:12.167Z,96594.67
2019-01-30T02:15:38.833Z,96598.58
2019-01-30T02:18:08.372Z,96595.17
2019-01-30T02:20:34.336Z,96585.05
2019-01-30T02:23:01.104Z,96577.00
2019-01-30T02:25:27.839Z,96583.25
2019-01-30T02:27:54.561Z,96584.81
2019-01-30T02:30:23.377Z,96576.23
2019-01-30T02:32:50.133Z,96573.09
2019-01-30T02:35:17.839Z,96578.02
2019-01-30T02:37:44.619Z,96572.82
2019-01-30T02:40:14.155Z,96575.12
2019-01-30T02:42:42.568Z,96572.55
2019-01-30T02:45:14.010Z,96561.86
2019-01-30T02:47:41.340Z,96554.02
2019-01-30T02:50:10.736Z,96546.48
2019-01-30T02:52:37.458Z,96545.19
2019-01-30T02:55:04.477Z,96541.80
2019-01-30T02:57:31.401Z,96543.88
2019-01-30T02:59:58.245Z,96537.62
2019-01-30T03:02:24.983Z,96527.21
2019-01-30T03:04:51.728Z,96529.02
2019-01-30T03:07:21.068Z,96535.01
2019-01-30T03:09:47.795Z,96535.51
2019-01-30T03:12:14.500Z,96533.42
2019-01-30T03:14:41.245Z,96536.81
2019-01-30T03:17:08.016Z,96526.86
2019-01-30T03:19:34.822Z,96526.86
2019-01-30T03:22:01.539Z,96512.31
2019-01-30T03:24:28.277Z,96517.58
2019-01-30T03:26:55.036Z,96515.72
2019-01-30T03:29:21.865Z,96502.48
2019-01-30T03:31:48.635Z,96493.88
2019-01-30T03:34:16.482Z,96492.30
2019-01-30T03:36:43.231Z,96481.31
2019-01-30T03:39:10.371Z,96485.48
2019-01-30T03:41:37.123Z,96487.36
2019-01-30T03:44:03.950Z,96486.52
2019-01-30T03:46:30.684Z,96481.53
2019-01-30T03:48:57.473Z,96485.41
2019-01-30T03:51:24.291Z,96488.80
2019-01-30T03:53:51.019Z,96483.58
2019-01-30T03:56:17.758Z,96480.98
2019-01-30T03:58:44.625Z,96482.83
2019-01-30T04:01:11.370Z,96479.71
2019-01-30T04:03:38.128Z,96487.74
2019-01-30T04:06:05.031Z,96479.67
2019-01-30T04:08:35.450Z,96468.77
2019-01-30T04:11:02.147Z,96473.16
2019-01-30T04:13:28.918Z,96466.41
2019-01-30T04:15:56.011Z,96466.39
2019-01-30T04:18:22.886Z,96457.80
2019-01-30T04:20:50.707Z,96456.06
2019-01-30T04:23:17.453Z,96458.97
2019-01-30T04:25:44.278Z,96461.28
2019-01-30T04:28:11.007Z,96469.58
2019-01-30T04:30:39.388Z,96466.15
2019-01-30T04:33:06.254Z,96467.91
2019-01-30T04:35:32.986Z,96462.97
2019-01-30T04:37:59.728Z,96456.96
2019-01-30T04:40:28.193Z,96457.77
2019-01-30T04:42:54.921Z,96452.09
2019-01-30T04:45:22.949Z,96447.16
2019-01-30T04:47:49.753Z,96450.56
2019-01-30T04:50:16.516Z,96446.44
2019-01-30T04:52:43.222Z,96444.64
2019-01-30T04:55:10.552Z,96449.11
2019-01-30T04:57:37.410Z,96432.41
2019-01-30T05:00:05.328Z,96431.65
2019-01-30T05:02:32.064Z,96433.20
2019-01-30T05:05:01.940Z,96430.32
2019-01-30T05:07:28.690Z,96416.58
2019-01-30T05:09:55.430Z,96416.89
2019-01-30T05:12:22.267Z,96406.48
2019-01-30T05:14:49.518Z,96411.97
2019-01-30T05:17:16.258Z,96405.75
2019-01-30T05:19:43.130Z,96398.45
2019-01-30T05:22:10.038Z,96409.03
2019-01-30T05:24:39.329Z,96402.49
2019-01-30T05:27:06.081Z,96391.06
2019-01-30T05:29:32.818Z,96392.59
2019-01-30T05:32:01.248Z,96390.01
2019-01-30T05:34:28.249Z,96388.48
2019-01-30T05:36:54.950Z,96379.44
2019-01-30T05:39:21.702Z,96378.39
2019-01-30T05:41:48.438Z,96378.64
2019-01-30T05:44:18.097Z,96372.43
2019-01-30T05:46:44.811Z,96363.63
2019-01-30T05:49:11.555Z,96352.51
2019-01-30T05:51:38.269Z,96357.91
2019-01-30T05:54:05.085Z,96350.05
2019-01-30T05:56:31.893Z,96354.52
2019-01-30T05:58:58.715Z,96346.94
2019-01-30T06:01:25.561Z,96342.82
2019-01-30T06:03:52.262Z,96343.16
2019-01-30T06:06:19.106Z,96350.36
2019-01-30T06:08:45.837Z,96366.73
2019-01-30T06:11:12.578Z,96346.93
2019-01-30T06:13:39.315Z,96351.27
2019-01-30T06:16:06.067Z,96347.12
2019-01-30T06:18:32.805Z,96338.73
2019-01-30T06:20:59.578Z,96336.16
2019-01-30T06:23:26.368Z,96340.63
2019-01-30T06:25:54.600Z,96338.02
2019-01-30T06:28:21.873Z,96337.75
2019-01-30T06:30:49.325Z,96335.10
2019-01-30T06:33:16.293Z,96340.22
2019-01-30T06:35:43.074Z,96337.91
2019-01-30T06:38:09.777Z,96336.58
2019-01-30T06:40:36.506Z,96343.28
2019-01-30T06:43:03.379Z,96337.00
2019-01-30T06:45:30.661Z,96329.69
2019-01-30T06:47:57.615Z,96333.67
2019-01-30T06:50:26.317Z,96329.98
2019-01-30T06:52:53.137Z,96353.43
2019-01-30T06:55:19.888Z,96330.50
2019-01-30T06:57:46.611Z,96331.09
2019-01-30T07:00:16.837Z,96328.98
2019-01-30T07:02:44.988Z,96330.78
2019-01-30T07:05:12.116Z,96326.91
2019-01-30T07:07:38.945Z,96329.17
2019-01-30T07:10:08.742Z,96325.98
2019-01-30T07:12:35.551Z,96350.52
2019-01-30T07:15:05.169Z,96333.80
2019-01-30T07:17:34.066Z,96343.41
2019-01-30T07:20:00.883Z,96348.09
2019-01-30T07:22:27.633Z,96344.88
2019-01-30T07:24:54.983Z,96337.09
2019-01-30T07:27:24.879Z,96342.58
2019-01-30T07:29:51.830Z,96338.89
2019-01-30T07:32:19.481Z,96341.98
2019-01-30T07:34:46.369Z,96346.77
2019-01-30T07:37:13.430Z,96344.70
2019-01-30T07:39:40.172Z,96340.23
2019-01-30T07:42:07.023Z,96344.88
2019-01-30T07:44:33.752Z,96340.73
2019-01-30T07:47:01.612Z,96349.47
2019-01-30T07:49:28.349Z,96346.35
2019-01-30T07:51:55.239Z,96351.09
2019-01-30T07:54:22.452Z,96359.17
2019-01-30T07:56:49.205Z,96355.98
2019-01-30T07:59:16.016Z,96359.58
2019-01-30T08:01:42.739Z,96353.33
2019-01-30T08:04:09.607Z,96356.73
2019-01-30T08:06:36.349Z,96361.96
2019-01-30T08:09:07.640Z,96366.75
2019-01-30T08:11:34.398Z,96370.85
2019-01-30T08:14:01.962Z,96368.47
2019-01-30T08:16:28.991Z,96369.53
2019-01-30T08:18:56.034Z,96371.91
2019-01-30T08:21:22.787Z,96363.28
2019-01-30T08:23:49.497Z,96368.70
2019-01-30T08:26:16.521Z,96375.95
2019-01-30T08:28:43.420Z,96376.97
2019-01-30T08:31:10.469Z,96373.51
2019-01-30T08:33:37.942Z,96386.21
2019-01-30T08:36:07.858Z,96397.95
2019-01-30T08:38:34.707Z,96382.68
2019-01-30T08:41:01.572Z,96387.70
2019-01-30T08:43:28.288Z,96394.41
2019-01-30T08:45:55.027Z,96394.37
2019-01-30T08:48:22.085Z,96395.29
2019-01-30T08:50:48.925Z,96383.88
2019-01-30T08:53:15.668Z,96389.98
2019-01-30T08:55:42.413Z,96391.23
2019-01-30T08:58:09.239Z,96390.91
2019-01-30T09:00:38.916Z,96381.83
2019-01-30T09:03:14.535Z,96389.58
2019-01-30T09:05:34.923Z,96393.20
2019-01-30T09:08:04.710Z,96399.09
2019-01-30T09:10:34.235Z,96392.61
2019-01-30T09:13:01.363Z,96394.41
2019-01-30T09:15:28.294Z,96394.39
2019-01-30T09:17:55.159Z,96393.88
2019-01-30T09:20:22.424Z,96392.44
2019-01-30T09:22:49.369Z,96394.33
2019-01-30T09:25:18.138Z,96395.63
2019-01-30T09:27:44.889Z,96403.66
2019-01-30T09:30:22.644Z,96402.84
2019-01-30T09:32:49.766Z,96404.45
2019-01-30T09:35:16.488Z,96398.79
2019-01-30T09:37:45.137Z,96405.05
2019-01-30T09:40:12.394Z,96412.28
2019-01-30T09:42:39.340Z,96407.81
2019-01-30T09:45:09.930Z,96404.30
2019-01-30T09:47:36.920Z,96404.30
2019-01-30T09:50:05.240Z,96417.03
2019-01-30T09:52:32.232Z,96419.30
2019-01-30T09:54:59.041Z,96420.58
2019-01-30T09:57:25.733Z,96417.50
2019-01-30T09:59:52.525Z,96428.06
2019-01-30T10:02:19.289Z,96428.06
2019-01-30T10:04:46.001Z,96435.65
2019-01-30T10:07:12.859Z,96430.14
2019-01-30T10:09:39.664Z,96425.22
2019-01-30T10:12:06.598Z,96436.91
2019-01-30T10:14:33.296Z,96437.12
2019-01-30T10:17:00.008Z,96426.08
2019-01-30T10:19:26.780Z,96436.97
2019-01-30T10:21:55.921Z,96432.58
2019-01-30T10:24:22.676Z,96435.40
2019-01-30T10:26:49.442Z,96435.42
2019-01-30T10:29:16.191Z,96446.98
2019-01-30T10:31:43.309Z,96450.20
2019-01-30T10:34:10.370Z,96445.45
2019-01-30T10:36:38.922Z,96443.94
2019-01-30T10:39:08.708Z,96451.63
2019-01-30T10:41:36.014Z,96448.05
2019-01-30T10:44:04.853Z,96458.44
2019-01-30T10:46:31.794Z,96451.06
2019-01-30T10:48:59.091Z,96454.23
2019-01-30T10:51:26.202Z,96445.08
2019-01-30T10:53:52.922Z,96445.08
2019-01-30T10:56:20.016Z,96447.02
2019-01-30T10:58:46.778Z,96452.13
2019-01-30T11:01:13.792Z,96452.44
2019-01-30T11:03:40.672Z,96449.75
2019-01-30T11:06:09.289Z,96448.70
2019-01-30T11:08:36.510Z,96442.13
2019-01-30T11:11:07.992Z,96449.61
2019-01-30T11:13:32.116Z,96445.72
2019-01-30T11:16:01.186Z,96454.02
2019-01-30T11:18:28.286Z,96445.36
2019-01-30T11:20:55.079Z,96446.33
2019-01-30T11:23:27.675Z,96447.38
2019-01-30T11:25:56.881Z,96450.61
2019-01-30T11:28:25.378Z,96447.73
2019-01-30T11:30:52.602Z,96464.05
2019-01-30T11:33:22.412Z,96457.47
2019-01-30T11:35:49.137Z,96457.34
2019-01-30T11:38:18.765Z,96453.93
2019-01-30T11:40:45.992Z,96457.61
2019-01-30T11:43:12.988Z,96461.88
2019-01-30T11:45:41.671Z,96460.98
2019-01-30T11:48:08.627Z,96457.23
2019-01-30T11:50:36.465Z,96462.41
2019-01-30T11:53:03.467Z,96461.22
2019-01-30T11:55:32.736Z,96466.66
2019-01-30T11:58:00.379Z,96459.72
2019-01-30T12:00:47.731Z,96463.87
2019-01-30T12:03:14.553Z,96460.62
2019-01-30T12:05:43.289Z,96466.77
2019-01-30T12:08:10.019Z,96465.63
2019-01-30T12:10:39.765Z,96470.28
2019-01-30T12:13:06.782Z,96472.48
2019-01-30T12:15:33.590Z,96479.13
2019-01-30T12:18:00.355Z,96480.03
2019-01-30T12:20:27.103Z,96483.12
2019-01-30T12:22:54.156Z,96485.93
2019-01-30T12:25:21.008Z,96481.17
2019-01-30T12:27:51.006Z,96490.88
2019-01-30T12:30:19.926Z,96497.43
2019-01-30T12:32:46.708Z,96497.77
2019-01-30T12:35:13.431Z,96499.88
2019-01-30T12:37:40.532Z,96500.26
2019-01-30T12:40:08.317Z,96510.94
2019-01-30T12:42:36.401Z,96510.27
2019-01-30T12:45:04.055Z,96512.81
2019-01-30T12:47:34.402Z,96507.84
2019-01-30T12:50:01.139Z,96522.26
2019-01-30T12:52:29.569Z,96531.29
2019-01-30T12:54:56.639Z,96529.09
2019-01-30T12:57:23.398Z,96532.09
2019-01-30T12:59:50.236Z,96539.61
2019-01-30T13:02:16.985Z,96538.61
2019-01-30T13:04:44.400Z,96546.09
2019-01-30T13:07:11.307Z,96551.75
2019-01-30T13:09:38.037Z,96553.53
2019-01-30T13:12:04.730Z,96559.61
2019-01-30T13:14:31.481Z,96570.50
2019-01-30T13:17:01.309Z,96568.98
2019-01-30T13:19:28.078Z,96578.64
2019-01-30T13:21:54.827Z,96578.93
2019-01-30T13:24:21.535Z,96577.41
2019-01-30T13:26:48.633Z,96591.47
2019-01-30T13:29:15.547Z,96609.19
2019-01-30T13:31:46.001Z,96593.56
2019-01-30T13:34:12.834Z,96598.88
2019-01-30T13:36:48.017Z,96605.88
2019-01-30T13:39:15.244Z,96604.05
2019-01-30T13:41:41.964Z,96611.80
2019-01-30T13:44:08.735Z,96615.38
2019-01-30T13:46:35.610Z,96622.92
2019-01-30T13:49:02.585Z,96622.64
2019-01-30T13:51:29.949Z,96637.00
2019-01-30T13:53:57.111Z,96634.17
2019-01-30T13:56:26.991Z,96656.31
2019-01-30T13:58:53.716Z,96657.34
2019-01-30T14:01:20.539Z,96664.95
2019-01-30T14:03:47.659Z,96672.48
2019-01-30T14:06:14.384Z,96679.61
2019-01-30T14:08:41.239Z,96677.80
2019-01-30T14:11:08.177Z,96684.87
2019-01-30T14:13:34.974Z,96691.91
2019-01-30T14:16:01.654Z,96693.43
2019-01-30T14:18:28.590Z,96699.72
2019-01-30T14:20:55.415Z,96710.16
2019-01-30T14:23:22.147Z,96716.44
2019-01-30T14:25:48.840Z,96715.37
2019-01-30T14:28:15.640Z,96719.55
2019-01-30T14:30:42.374Z,96729.43
2019-01-30T14:33:09.251Z,96728.45
2019-01-30T14:35:43.925Z,96750.84
2019-01-30T14:38:10.717Z,96745.62
2019-01-30T14:40:39.708Z,96762.02
2019-01-30T14:43:06.525Z,96766.77
2019-01-30T14:45:33.345Z,96778.21
2019-01-30T14:48:00.065Z,96765.69
2019-01-30T14:50:26.870Z,96771.13
2019-01-30T14:52:53.817Z,96783.33
2019-01-30T14:55:21.575Z,96782.85
2019-01-30T14:57:48.569Z,96786.50
2019-01-30T15:00:20.310Z,96796.14
2019-01-30T15:02:47.153Z,96796.17
2019-01-30T15:05:21.852Z,96826.91
2019-01-30T15:07:44.562Z,96817.04
2019-01-30T15:10:13.213Z,96807.41
2019-01-30T15:12:39.934Z,96818.11
2019-01-30T15:15:09.311Z,96822.52
2019-01-30T15:17:37.995Z,96838.95
2019-01-30T15:20:07.810Z,96816.84
2019-01-30T15:22:34.519Z,96839.23
2019-01-30T15:25:01.214Z,96833.23
2019-01-30T15:27:28.076Z,96846.80
2019-01-30T15:29:54.910Z,96844.98
2019-01-30T15:32:22.016Z,96843.68
2019-01-30T15:34:49.128Z,96854.11
2019-01-30T15:37:15.972Z,96910.91
2019-01-30T15:39:42.826Z,96854.10
2019-01-30T15:42:09.761Z,96856.44
2019-01-30T15:44:36.606Z,96874.68
2019-01-30T15:47:03.296Z,96890.05
2019-01-30T15:49:30.677Z,96872.07
2019-01-30T15:51:57.371Z,96877.30
2019-01-30T15:54:24.079Z,96873.91
2019-01-30T15:56:50.954Z,96881.98
2019-01-30T15:59:17.836Z,96879.64
2019-01-30T16:01:45.518Z,96882.76
2019-01-30T16:04:13.846Z,96896.04
2019-01-30T16:06:40.776Z,96894.48
2019-01-30T16:09:08.403Z,96893.19
2019-01-30T16:11:35.131Z,96907.52
2019-01-30T16:14:02.154Z,96903.09
2019-01-30T16:16:29.055Z,96904.40
2019-01-30T16:18:55.826Z,96908.83
2019-01-30T16:21:22.682Z,96914.03
2019-01-30T16:23:49.501Z,96911.95
2019-01-30T16:26:17.928Z,96913.76
2019-01-30T16:28:47.030Z,96916.36
2019-01-30T16:31:14.221Z,96936.69
2019-01-30T16:33:40.955Z,96918.98
2019-01-30T16:36:07.883Z,96928.63
2019-01-30T16:38:34.734Z,96941.66
2019-01-30T16:41:01.898Z,96943.88
2019-01-30T16:43:29.280Z,96953.97
2019-01-30T16:45:57.626Z,96943.67
2019-01-30T16:48:24.369Z,96955.99
2019-01-30T16:50:51.134Z,96954.69
2019-01-30T16:53:19.820Z,96969.02
2019-01-30T16:55:46.557Z,96959.36
2019-01-30T16:58:13.306Z,96966.64
2019-01-30T17:00:40.041Z,96979.12
2019-01-30T17:03:06.915Z,96981.72
2019-01-30T17:05:33.654Z,96966.38
2019-01-30T17:08:00.588Z,96984.58
2019-01-30T17:10:27.520Z,96977.28
2019-01-30T17:12:55.121Z,96985.62
2019-01-30T17:15:24.491Z,96993.70
2019-01-30T17:17:51.766Z,97007.22
2019-01-30T17:20:22.492Z,97009.36
2019-01-30T17:22:49.442Z,97023.91
2019-01-30T17:25:16.217Z,97019.22
2019-01-30T17:27:43.029Z,97029.66
2019-01-30T17:30:16.899Z,97033.55
2019-01-30T17:32:43.751Z,97028.58
2019-01-30T17:35:10.577Z,97040.02
2019-01-30T17:37:41.112Z,97034.03
2019-01-30T17:40:11.680Z,97045.98
2019-01-30T17:42:38.484Z,97054.34
2019-01-30T17:45:06.461Z,97054.62
2019-01-30T17:47:33.487Z,97050.68
2019-01-30T17:50:00.359Z,97049.13
2019-01-30T17:52:27.345Z,97056.16
2019-01-30T17:54:54.117Z,97054.35
2019-01-30T17:57:20.868Z,97061.09
2019-01-30T17:59:53.370Z,97050.93
2019-01-30T18:02:19.657Z,97074.36
2019-01-30T18:04:46.405Z,97074.63
2019-01-30T18:07:13.233Z,97070.67
2019-01-30T18:09:39.974Z,97072.49
2019-01-30T18:12:06.944Z,97069.12
2019-01-30T18:14:33.691Z,97083.69
2019-01-30T18:17:00.557Z,97077.91
2019-01-30T18:19:27.669Z,97073.52
2019-01-30T18:21:54.470Z,97081.85
2019-01-30T18:24:21.184Z,97081.36
2019-01-30T18:26:48.088Z,97084.25
2019-01-30T18:29:14.844Z,97085.81
2019-01-30T18:31:42.185Z,97096.28
2019-01-30T18:34:11.491Z,97098.30
2019-01-30T18:36:41.274Z,97090.27
2019-01-30T18:39:08.160Z,97098.91
2019-01-30T18:41:36.932Z,97159.55
2019-01-30T18:44:03.971Z,97100.71
2019-01-30T18:46:30.726Z,97099.66
2019-01-30T18:48:57.572Z,97095.24
2019-01-30T18:51:24.441Z,97114.51
2019-01-30T18:53:51.230Z,97110.34
2019-01-30T18:56:18.013Z,97108.33
2019-01-30T18:58:45.076Z,97117.67
2019-01-30T19:01:11.942Z,97121.53
2019-01-30T19:03:38.806Z,97129.09
2019-01-30T19:06:05.558Z,97130.92
2019-01-30T19:08:32.340Z,97141.11
2019-01-30T19:10:59.097Z,97133.30
2019-01-30T19:13:26.187Z,97131.96
2019-01-30T19:15:53.453Z,97200.48
2019-01-30T19:18:22.841Z,97147.08
2019-01-30T19:20:52.501Z,97142.87
2019-01-30T19:23:19.587Z,97148.06
2019-01-30T19:25:46.646Z,97150.88
2019-01-30T19:28:16.246Z,97143.37
2019-01-30T19:30:45.020Z,97148.08
2019-01-30T19:33:11.284Z,97145.77
2019-01-30T19:35:38.255Z,97146.23
2019-01-30T19:38:06.910Z,97146.48
2019-01-30T19:40:33.663Z,97144.95
2019-01-30T19:43:00.686Z,97149.92
2019-01-30T19:45:27.595Z,97150.70
2019-01-30T19:47:54.498Z,97149.44
2019-01-30T19:50:26.045Z,97153.38
2019-01-30T19:52:53.780Z,97142.47
2019-01-30T19:55:20.569Z,97145.56
2019-01-30T19:57:47.326Z,97144.78
2019-01-30T20:00:25.934Z,97146.85
2019-01-30T20:02:52.762Z,97149.52
2019-01-30T20:05:19.754Z,97153.70
2019-01-30T20:07:46.933Z,97166.45
2019-01-30T20:10:19.343Z,97149.55
2019-01-30T20:12:46.140Z,97144.06
2019-01-30T20:15:13.395Z,97146.36
2019-01-30T20:17:40.747Z,97145.06
2019-01-30T20:20:11.220Z,97193.50
2019-01-30T20:22:38.325Z,97146.38
2019-01-30T20:25:10.186Z,97150.80
2019-01-30T20:27:36.969Z,97147.62
2019-01-30T20:30:05.329Z,97149.69
2019-01-30T20:32:32.360Z,97147.34
2019-01-30T20:34:59.564Z,97203.09
2019-01-30T20:37:26.608Z,97148.91
2019-01-30T20:39:54.149Z,97147.85
2019-01-30T20:42:24.885Z,97190.30
2019-01-30T20:44:51.972Z,97156.95
2019-01-30T20:47:19.040Z,97158.27
2019-01-30T20:49:46.012Z,97150.66
2019-01-30T20:52:12.941Z,97169.44
2019-01-30T20:54:40.190Z,97157.76
2019-01-30T20:57:07.438Z,97162.72
2019-01-30T20:59:34.475Z,97164.54
2019-01-30T21:02:01.260Z,97159.09
2019-01-30T21:04:31.372Z,97165.59
2019-01-30T21:06:58.409Z,97163.98
2019-01-30T21:09:25.620Z,97158.27
2019-01-30T21:11:55.384Z,97160.57
2019-01-30T21:14:22.268Z,97160.56
2019-01-30T21:16:49.197Z,97161.09
2019-01-30T21:19:16.282Z,97163.89
2019-01-30T21:21:43.244Z,97166.23
2019-01-30T21:24:10.809Z,97154.50
2019-01-30T21:26:37.649Z,97171.68
2019-01-30T21:29:04.509Z,97164.47
2019-01-30T21:31:31.278Z,97158.48
2019-01-30T21:33:58.510Z,97160.52
2019-01-30T21:36:25.448Z,97162.81
2019-01-30T21:38:52.602Z,97156.58
2019-01-30T21:41:19.638Z,97153.95
2019-01-30T21:43:46.488Z,97151.84
2019-01-30T21:46:13.387Z,97155.63
2019-01-30T21:48:40.762Z,97146.58
2019-01-30T21:51:07.575Z,97146.81
2019-01-30T21:53:34.934Z,96843.28
2019-01-30T21:56:01.890Z,97150.69
2019-01-30T21:58:29.156Z,97152.28
2019-01-30T22:00:55.886Z,97170.47
2019-01-30T22:03:22.624Z,97166.88
2019-01-30T22:05:49.916Z,97147.56
2019-01-30T22:08:19.754Z,97154.09
2019-01-30T22:10:47.090Z,97155.09
2019-01-30T22:13:14.119Z,97155.58
2019-01-30T22:15:40.850Z,97161.34
2019-01-30T22:18:08.084Z,97160.03
2019-01-30T22:20:34.798Z,97156.11
2019-01-30T22:23:01.787Z,97154.26
2019-01-30T22:25:28.712Z,97153.25
2019-01-30T22:27:58.293Z,97161.57
2019-01-30T22:30:30.442Z,97154.48
2019-01-30T22:32:57.416Z,97152.38
2019-01-30T22:35:25.213Z,97174.73
2019-01-30T22:37:52.638Z,97152.09
2019-01-30T22:40:20.162Z,97148.96
2019-01-30T22:42:47.312Z,97135.93
2019-01-30T22:45:18.898Z,97062.45
2019-01-30T22:47:45.678Z,97147.30
2019-01-30T22:50:12.960Z,97147.33
2019-01-30T22:52:39.796Z,97150.27
2019-01-30T22:55:08.902Z,97146.34
2019-01-30T22:57:35.650Z,97141.64
2019-01-30T23:00:03.686Z,97146.66
2019-01-30T23:02:30.466Z,97140.39
2019-01-30T23:05:20.624Z,97140.92
2019-01-30T23:08:11.021Z,97132.38
2019-01-30T23:11:21.206Z,97121.98
2019-01-30T23:14:13.541Z,97126.20
2019-01-30T23:17:07.924Z,97126.69
2019-01-30T23:20:15.166Z,97121.34
2019-01-30T23:23:25.742Z,97123.06
2019-01-30T23:26:20.588Z,97117.22
2019-01-30T23:29:16.802Z,97111.89
2019-01-30T23:32:21.551Z,97114.29
2019-01-30T23:35:27.895Z,97107.16
2019-01-30T23:38:15.080Z,97097.89
2019-01-30T23:41:15.478Z,97097.14
2019-01-30T23:44:19.208Z,97098.98
2019-01-30T23:47:29.854Z,97098.23
2019-01-30T23:50:13.516Z,97098.41
2019-01-30T23:53:40.205Z,97091.77
2019-01-30T23:56:27.564Z,97088.87
2019-01-30T23:59:18.361Z,97096.02
